Trout Lake, Michigan
Current Conditions -  °F | °C
As of 6:35 PM on Friday 19 Dec 2014 (Local Time) from KERY Reporting Station
Clear Clear  
Wind Chill: 14°   Ceiling: Unl
Heat Index: 14°   Visibility: 10mi
Dew Point: 13°   Wind: 0mph
Humidity: 98%   Direction: NA
Pressure: 30.26"   Gusts: NA
Location:  46.19°N, 85.02°W
Report Text: KERY 192335Z AUTO 00000KT 10SM CLR M10/M10 A3026 RMK AO2 T11021104
Loading
Personal Weather Stations






























Interactive Weather Map New forecast layout! Learn more

10-Day Weather Forecast

Advertisements
Track Severe Weather on mobile